Time;durP1;ratioP1;P1;durP2;ratioP2;P2;SDS_P1;SDS_P2;PMS_P1;PMS_P2;Temp;Humidity;BMP_temperature;BMP_pressure;BME280_temperature;BME280_humidity;BME280_pressure;Samples;Min_cycle;Max_cycle;Signal;HPM_P1;HPM_P2
2021/11/08 00:00:06;;;;;;;10.57;2.45;;;11.30;78.20;;;;;;5089564;28;20016;-80
2021/11/08 00:02:33;;;;;;;10.63;2.80;;;11.30;78.30;;;;;;5089406;28;20077;-80
2021/11/08 00:04:59;;;;;;;10.68;3.20;;;11.20;78.30;;;;;;5091765;28;20104;-80
2021/11/08 00:07:26;;;;;;;7.93;2.80;;;11.20;78.60;;;;;;5090669;28;20106;-80
2021/11/08 00:09:52;;;;;;;10.80;3.00;;;11.20;78.30;;;;;;5090069;28;20036;-81
2021/11/08 00:12:21;;;;;;;5.70;2.72;;;11.20;78.40;;;;;;5089875;28;20099;-80
2021/11/08 00:14:48;;;;;;;10.23;2.67;;;11.10;78.20;;;;;;5088706;28;20078;-80
2021/11/08 00:19:55;;;;;;;8.15;3.15;;;11.00;78.20;;;;;;5091256;28;20460;-80
2021/11/08 00:22:22;;;;;;;10.60;2.78;;;11.00;78.40;;;;;;5088408;28;20016;-79
2021/11/08 00:24:49;;;;;;;9.18;3.05;;;10.90;78.80;;;;;;5088513;28;20035;-80
2021/11/08 00:27:15;;;;;;;9.27;2.53;;;10.90;78.70;;;;;;5088879;28;20024;-80
2021/11/08 00:29:41;;;;;;;6.68;2.72;;;10.90;78.80;;;;;;5088928;28;20036;-79
2021/11/08 00:32:08;;;;;;;8.23;2.67;;;10.80;79.00;;;;;;5090514;28;20022;-80
2021/11/08 00:34:34;;;;;;;9.18;2.80;;;10.80;79.10;;;;;;5090509;28;20028;-80
2021/11/08 00:36:59;;;;;;;10.65;2.70;;;10.90;78.80;;;;;;5088753;28;20358;-80
2021/11/08 00:39:25;;;;;;;8.43;2.28;;;10.80;78.90;;;;;;5088839;28;20035;-79
2021/11/08 00:41:52;;;;;;;9.70;3.00;;;10.90;79.00;;;;;;5089740;28;20025;-81
2021/11/08 00:44:18;;;;;;;9.18;2.97;;;10.80;78.40;;;;;;5089366;28;20039;-81
2021/11/08 00:46:44;;;;;;;8.85;2.92;;;10.70;78.60;;;;;;5087136;28;20388;-80
2021/11/08 00:49:11;;;;;;;9.13;2.65;;;10.70;78.90;;;;;;5087639;28;20103;-80
2021/11/08 00:51:40;;;;;;;8.23;2.95;;;10.60;78.80;;;;;;5088861;28;20511;-80
2021/11/08 00:54:10;;;;;;;7.82;2.42;;;10.60;79.00;;;;;;5090151;28;20385;-79
2021/11/08 00:56:36;;;;;;;9.60;3.03;;;10.60;79.20;;;;;;5089707;28;20028;-80
2021/11/08 00:59:02;;;;;;;7.93;2.80;;;10.50;78.60;;;;;;5091132;28;20537;-81
2021/11/08 01:01:28;;;;;;;7.03;2.78;;;10.60;79.50;;;;;;5089382;28;20404;-80
2021/11/08 01:03:54;;;;;;;9.48;2.65;;;10.60;79.40;;;;;;5088595;28;20047;-81
2021/11/08 01:06:20;;;;;;;7.40;2.78;;;10.60;79.10;;;;;;5090426;28;20488;-81
2021/11/08 01:08:46;;;;;;;8.75;2.95;;;10.50;79.10;;;;;;5088033;28;20181;-79
2021/11/08 01:11:13;;;;;;;7.97;2.80;;;10.50;79.30;;;;;;5078349;28;20116;-80
2021/11/08 01:13:40;;;;;;;5.80;2.60;;;10.50;79.40;;;;;;5091957;28;20021;-80
2021/11/08 01:16:08;;;;;;;8.38;2.80;;;10.40;79.30;;;;;;5088068;28;20116;-81
2021/11/08 01:18:34;;;;;;;11.32;3.08;;;10.40;79.30;;;;;;5088412;28;20017;-80
2021/11/08 01:20:59;;;;;;;8.32;2.63;;;10.40;79.40;;;;;;5088441;28;20055;-80
2021/11/08 01:23:27;;;;;;;6.82;2.67;;;10.50;79.90;;;;;;5088432;28;20150;-80
2021/11/08 01:26:04;;;;;;;8.40;2.80;;;10.50;79.40;;;;;;5091647;28;20031;-80
2021/11/08 01:28:42;;;;;;;9.68;3.00;;;10.50;79.30;;;;;;5090323;28;20028;-80
2021/11/08 01:31:11;;;;;;;6.53;2.90;;;10.40;79.50;;;;;;5087911;28;20031;-80
2021/11/08 01:33:38;;;;;;;6.78;2.95;;;10.50;79.30;;;;;;5089013;28;20020;-80
2021/11/08 01:38:49;;;;;;;8.43;3.15;;;10.40;79.30;;;;;;5091913;28;20028;-80
2021/11/08 01:41:22;;;;;;;11.82;3.00;;;10.30;79.70;;;;;;5091883;28;20111;-80
2021/11/08 01:43:49;;;;;;;8.15;3.42;;;10.30;79.80;;;;;;5091177;28;20662;-81
2021/11/08 01:46:17;;;;;;;8.43;3.10;;;10.30;79.80;;;;;;5093403;28;20103;-80
2021/11/08 01:48:44;;;;;;;8.93;3.40;;;10.30;79.90;;;;;;5091746;28;20119;-80
2021/11/08 01:51:10;;;;;;;9.75;3.00;;;10.30;79.90;;;;;;5091936;28;20404;-80
2021/11/08 01:53:36;;;;;;;7.95;3.20;;;10.30;79.90;;;;;;5091948;28;20174;-80
2021/11/08 01:56:03;;;;;;;7.97;3.03;;;10.20;79.60;;;;;;5094306;28;20532;-80
2021/11/08 01:58:31;;;;;;;9.02;2.95;;;10.20;79.40;;;;;;5091052;28;20088;-80
2021/11/08 02:00:58;;;;;;;8.05;2.78;;;10.20;80.40;;;;;;5091657;28;20025;-80
2021/11/08 02:03:24;;;;;;;8.32;3.13;;;10.10;79.50;;;;;;5091762;28;20012;-80
2021/11/08 02:05:51;;;;;;;6.05;2.60;;;10.00;79.40;;;;;;5091786;28;20039;-79
2021/11/08 02:08:18;;;;;;;9.32;3.30;;;10.00;79.80;;;;;;5082047;28;20051;-80
2021/11/08 02:10:44;;;;;;;9.10;2.80;;;10.00;80.30;;;;;;5094740;28;20111;-80
2021/11/08 02:13:10;;;;;;;6.57;2.90;;;10.10;79.70;;;;;;5091366;28;20024;-80
2021/11/08 02:15:36;;;;;;;11.02;2.75;;;10.00;79.50;;;;;;5091487;28;20085;-80
2021/11/08 02:18:07;;;;;;;6.18;3.10;;;9.90;79.70;;;;;;5092885;28;20022;-80
2021/11/08 02:20:34;;;;;;;8.45;2.83;;;9.90;79.40;;;;;;5091600;28;20025;-81
2021/11/08 02:23:06;;;;;;;9.45;2.92;;;9.90;79.80;;;;;;5093649;28;20032;-80
2021/11/08 02:25:35;;;;;;;9.98;3.13;;;9.80;79.90;;;;;;5108620;28;20103;-80
2021/11/08 02:28:02;;;;;;;8.13;2.65;;;9.80;80.50;;;;;;5090656;28;20032;-80
2021/11/08 02:30:30;;;;;;;7.88;2.90;;;9.80;80.30;;;;;;5090995;28;20039;-80
2021/11/08 02:32:59;;;;;;;7.53;2.50;;;9.80;80.10;;;;;;5092687;28;20020;-80
2021/11/08 02:35:26;;;;;;;6.18;2.80;;;9.80;80.10;;;;;;5091304;28;20036;-80
2021/11/08 02:37:52;;;;;;;7.20;2.85;;;9.70;79.70;;;;;;5094393;28;20023;-80
2021/11/08 02:40:22;;;;;;;5.72;2.58;;;9.70;80.00;;;;;;5087614;28;20033;-81
2021/11/08 02:42:50;;;;;;;7.95;2.58;;;9.70;80.00;;;;;;5088497;28;20020;-79
2021/11/08 02:45:18;;;;;;;10.00;2.67;;;9.70;80.00;;;;;;5090003;28;20060;-80
2021/11/08 02:47:45;;;;;;;8.05;2.78;;;9.60;80.00;;;;;;5090726;28;20016;-80
2021/11/08 02:50:12;;;;;;;7.93;2.83;;;9.60;79.90;;;;;;5092311;28;20123;-81
2021/11/08 02:52:38;;;;;;;7.65;3.20;;;9.60;79.50;;;;;;5093258;28;20463;-80
2021/11/08 02:55:05;;;;;;;11.25;3.22;;;9.50;80.00;;;;;;5090534;28;20400;-81
2021/11/08 02:57:34;;;;;;;6.88;2.85;;;9.50;80.00;;;;;;5090394;28;20012;-80
2021/11/08 03:00:01;;;;;;;7.32;2.92;;;9.60;80.10;;;;;;5090666;28;20400;-80
2021/11/08 03:02:27;;;;;;;7.82;2.60;;;9.60;80.20;;;;;;5090766;28;20425;-80
2021/11/08 03:04:54;;;;;;;8.38;2.70;;;9.60;80.00;;;;;;5093657;28;20523;-80
2021/11/08 03:07:22;;;;;;;8.45;2.88;;;9.60;80.10;;;;;;5091371;28;20028;-80
2021/11/08 03:09:56;;;;;;;7.28;2.67;;;9.60;80.30;;;;;;5091658;28;20040;-80
2021/11/08 03:12:26;;;;;;;7.60;3.00;;;9.60;80.00;;;;;;5090037;28;20058;-80
2021/11/08 03:15:09;;;;;;;8.38;3.20;;;9.60;80.30;;;;;;5090567;28;20057;-79
2021/11/08 03:17:42;;;;;;;5.57;2.70;;;9.50;80.30;;;;;;5076334;28;20060;-80
2021/11/08 03:20:12;;;;;;;6.95;2.67;;;9.60;80.50;;;;;;5092126;28;20420;-79
2021/11/08 03:22:40;;;;;;;5.93;2.72;;;9.60;80.30;;;;;;5092674;28;20511;-80
2021/11/08 03:30:38;;;;;;;6.40;2.70;;;9.70;80.20;;;;;;5030349;28;20073;-80
2021/11/08 03:33:05;;;;;;;7.65;2.60;;;9.70;80.20;;;;;;5030460;28;20080;-80
2021/11/08 03:35:32;;;;;;;8.50;2.72;;;9.60;80.40;;;;;;5029085;28;20087;-80
2021/11/08 03:37:58;;;;;;;6.40;2.70;;;9.70;80.60;;;;;;5028092;28;20605;-80
2021/11/08 03:40:31;;;;;;;7.60;2.95;;;9.70;80.50;;;;;;5026335;28;20521;-80
2021/11/08 03:42:58;;;;;;;7.35;2.72;;;9.80;80.50;;;;;;5025988;28;20029;-80
2021/11/08 03:45:26;;;;;;;8.00;2.97;;;9.80;80.50;;;;;;5025991;28;20439;-79
2021/11/08 03:47:54;;;;;;;6.28;2.65;;;9.80;80.60;;;;;;5025858;28;20029;-79
2021/11/08 03:50:21;;;;;;;9.82;2.78;;;9.80;80.40;;;;;;5014834;28;20033;-80
2021/11/08 03:52:47;;;;;;;8.23;2.83;;;9.80;80.30;;;;;;5030970;28;20111;-80
2021/11/08 03:55:13;;;;;;;6.95;2.50;;;9.80;80.90;;;;;;5025263;28;20053;-80
2021/11/08 03:57:40;;;;;;;7.85;2.72;;;9.90;81.10;;;;;;5025238;28;20041;-80
2021/11/08 04:00:07;;;;;;;6.43;2.85;;;9.90;80.70;;;;;;5025482;28;20105;-80
2021/11/08 04:02:34;;;;;;;6.32;2.85;;;10.00;80.70;;;;;;5028098;28;20506;-80
2021/11/08 04:05:01;;;;;;;9.90;3.05;;;10.00;80.70;;;;;;5078052;28;20060;-80
2021/11/08 04:07:27;;;;;;;6.90;2.65;;;10.00;80.60;;;;;;5090328;28;20020;-80
2021/11/08 04:09:55;;;;;;;9.18;3.08;;;10.00;80.50;;;;;;5088848;28;20078;-80
2021/11/08 04:12:22;;;;;;;9.57;2.95;;;9.90;80.30;;;;;;5088980;28;20027;-80
2021/11/08 04:14:48;;;;;;;7.07;2.65;;;9.90;81.10;;;;;;5089186;28;20465;-79
2021/11/08 04:17:14;;;;;;;6.90;2.80;;;10.00;80.90;;;;;;5089976;28;20032;-80
2021/11/08 04:19:41;;;;;;;8.30;3.25;;;10.00;80.60;;;;;;5107514;28;20027;-80
2021/11/08 04:22:07;;;;;;;7.35;3.13;;;10.00;81.10;;;;;;5088981;28;20020;-79
2021/11/08 04:24:33;;;;;;;9.20;3.22;;;10.00;81.20;;;;;;5088564;28;20040;-79
2021/11/08 04:26:59;;;;;;;6.57;2.80;;;10.00;81.10;;;;;;5088947;28;20511;-79
2021/11/08 04:29:24;;;;;;;6.65;3.00;;;10.00;81.20;;;;;;5089086;28;20040;-79
2021/11/08 04:31:51;;;;;;;8.30;2.67;;;10.00;81.30;;;;;;5092416;28;20028;-79
2021/11/08 04:39:32;;;;;;;6.93;2.83;;;10.10;81.00;;;;;;5087506;28;20047;-79
2021/11/08 04:42:13;;;;;;;9.50;3.30;;;10.10;81.40;;;;;;5089047;28;20048;-79
2021/11/08 04:47:28;;;;;;;7.78;2.90;;;10.10;81.30;;;;;;5090933;28;20385;-80
2021/11/08 04:50:08;;;;;;;6.65;2.88;;;10.20;81.50;;;;;;5088856;28;20055;-79
2021/11/08 04:58:14;;;;;;;7.63;2.80;;;10.20;81.60;;;;;;5056635;28;20091;-80
2021/11/08 05:22:59;;;;;;;6.88;3.00;;;10.20;81.20;;;;;;4974393;28;19997;-79
2021/11/08 05:25:31;;;;;;;8.80;3.30;;;10.30;82.10;;;;;;4974159;28;20035;-78
2021/11/08 05:30:48;;;;;;;8.68;3.53;;;10.20;81.10;;;;;;4923836;29;20052;-80
2021/11/08 05:33:14;;;;;;;4.60;2.70;;;10.10;81.40;;;;;;4933927;29;20043;-80
2021/11/08 05:35:41;;;;;;;7.75;3.20;;;10.20;81.90;;;;;;4935032;29;20493;-79
2021/11/08 05:38:09;;;;;;;7.75;3.22;;;10.20;81.90;;;;;;4987272;28;20038;-78
2021/11/08 05:40:36;;;;;;;5.72;3.10;;;10.20;82.00;;;;;;5012042;28;20478;-79
2021/11/08 05:43:05;;;;;;;8.48;3.20;;;10.30;81.90;;;;;;5009978;28;20498;-80
2021/11/08 05:45:33;;;;;;;5.78;2.95;;;10.30;81.50;;;;;;5010059;28;20467;-79
2021/11/08 05:47:59;;;;;;;7.53;2.92;;;10.30;81.20;;;;;;5010541;28;20569;-79
2021/11/08 05:50:27;;;;;;;6.05;3.22;;;10.20;81.50;;;;;;5009137;28;20057;-79
2021/11/08 05:52:54;;;;;;;8.52;3.33;;;10.20;81.50;;;;;;5012608;28;20410;-79
2021/11/08 05:55:26;;;;;;;6.82;3.38;;;10.20;81.70;;;;;;5012454;28;20062;-80
2021/11/08 06:49:51;;;;;;;6.75;2.80;;;10.50;82.40;;;;;;4988408;28;20064;-80
2021/11/08 06:52:18;;;;;;;7.63;2.97;;;10.50;83.10;;;;;;5084032;28;20042;-80
2021/11/08 06:54:47;;;;;;;7.97;3.38;;;10.40;81.90;;;;;;5090338;28;20016;-80
2021/11/08 06:57:16;;;;;;;7.82;3.05;;;10.40;82.10;;;;;;5090815;28;20107;-80
2021/11/08 06:59:44;;;;;;;10.23;3.17;;;10.40;82.50;;;;;;5090764;28;20035;-80
2021/11/08 07:02:11;;;;;;;8.10;3.10;;;10.40;82.70;;;;;;5087228;28;20477;-80
2021/11/08 07:04:38;;;;;;;8.60;2.92;;;10.50;82.90;;;;;;5093501;28;20039;-79
2021/11/08 07:07:06;;;;;;;6.82;2.95;;;10.50;82.90;;;;;;5089387;28;20026;-77
2021/11/08 07:09:32;;;;;;;8.10;2.92;;;10.50;82.50;;;;;;5087559;28;20032;-79
2021/11/08 07:11:58;;;;;;;10.32;3.38;;;10.40;82.20;;;;;;5087685;28;20026;-80
2021/11/08 07:14:24;;;;;;;8.80;3.40;;;10.40;82.50;;;;;;5086334;28;20024;-79
2021/11/08 07:16:49;;;;;;;7.75;2.95;;;10.50;83.10;;;;;;5081185;28;20020;-80
2021/11/08 07:19:16;;;;;;;5.32;2.70;;;10.50;83.00;;;;;;5080976;28;20099;-80
2021/11/08 07:21:43;;;;;;;9.65;3.10;;;10.50;83.80;;;;;;5081946;28;20123;-79
2021/11/08 07:24:09;;;;;;;7.43;3.15;;;10.50;82.70;;;;;;5081630;28;20024;-80
2021/11/08 07:26:36;;;;;;;9.18;3.35;;;10.50;82.60;;;;;;5088385;28;20510;-80
2021/11/08 07:29:02;;;;;;;9.85;3.15;;;10.50;82.60;;;;;;5086606;28;20077;-80
2021/11/08 07:31:28;;;;;;;10.18;3.15;;;10.50;82.40;;;;;;5088299;28;20028;-80
2021/11/08 07:33:54;;;;;;;8.52;3.25;;;10.50;82.60;;;;;;5085804;28;20031;-80
2021/11/08 07:36:19;;;;;;;6.53;3.33;;;10.60;82.90;;;;;;5089242;28;20024;-80
2021/11/08 07:38:45;;;;;;;7.38;3.30;;;10.60;82.90;;;;;;5086086;28;20073;-78
2021/11/08 07:41:11;;;;;;;8.73;3.33;;;10.60;82.70;;;;;;5082304;28;20034;-80
2021/11/08 07:43:38;;;;;;;8.80;3.50;;;10.60;82.80;;;;;;5086958;28;20035;-80
2021/11/08 07:46:04;;;;;;;6.15;3.00;;;10.60;83.00;;;;;;5089692;28;20028;-80
2021/11/08 07:48:30;;;;;;;10.10;3.45;;;10.70;82.90;;;;;;5087233;28;20050;-78
2021/11/08 07:50:56;;;;;;;7.60;3.20;;;10.70;82.90;;;;;;5085522;28;20416;-78
2021/11/08 07:53:21;;;;;;;7.50;3.65;;;10.70;82.70;;;;;;5078870;28;20037;-78
2021/11/08 07:55:47;;;;;;;8.20;3.53;;;10.80;82.80;;;;;;5088341;28;20028;-78
2021/11/08 07:58:15;;;;;;;6.68;3.42;;;10.80;82.70;;;;;;5089630;28;20024;-78
2021/11/08 08:00:42;;;;;;;7.88;3.35;;;10.80;82.80;;;;;;5087311;28;20022;-78
2021/11/08 08:03:10;;;;;;;7.50;3.75;;;10.90;82.70;;;;;;5089534;28;20024;-79
2021/11/08 08:05:36;;;;;;;8.00;3.22;;;11.00;82.80;;;;;;5085752;28;20046;-77
2021/11/08 08:08:01;;;;;;;9.60;3.85;;;11.10;82.50;;;;;;5091623;28;20028;-76
2021/11/08 08:10:27;;;;;;;9.25;3.97;;;11.10;82.40;;;;;;5091085;28;20062;-77
2021/11/08 08:12:53;;;;;;;8.07;3.90;;;11.10;82.30;;;;;;5088457;28;20089;-78
2021/11/08 08:15:19;;;;;;;9.43;3.78;;;11.20;82.40;;;;;;5088676;28;20396;-82
2021/11/08 08:17:46;;;;;;;13.85;3.83;;;11.20;82.20;;;;;;5087696;28;20123;-70
2021/11/08 08:20:16;;;;;;;11.77;4.03;;;11.30;82.30;;;;;;5091565;28;20035;-70
2021/11/08 08:22:42;;;;;;;9.73;3.80;;;11.30;82.00;;;;;;5091972;28;20118;-70
2021/11/08 08:25:08;;;;;;;8.95;4.00;;;11.40;81.90;;;;;;5087896;28;20133;-70
2021/11/08 08:27:34;;;;;;;10.82;3.92;;;11.40;81.70;;;;;;5091445;28;20111;-71
2021/11/08 08:30:00;;;;;;;10.18;4.32;;;11.40;82.20;;;;;;5095334;28;20556;-72
2021/11/08 08:32:25;;;;;;;9.90;4.00;;;11.50;82.50;;;;;;5091465;28;20590;-69
2021/11/08 08:34:51;;;;;;;9.63;3.40;;;11.50;82.20;;;;;;5089091;28;20055;-69
2021/11/08 08:37:17;;;;;;;9.63;3.97;;;11.60;82.30;;;;;;5089655;28;20032;-69
2021/11/08 08:39:43;;;;;;;11.23;3.70;;;11.70;82.30;;;;;;5091505;28;20097;-69
2021/11/08 08:42:09;;;;;;;7.90;3.35;;;11.70;81.90;;;;;;5095479;28;20070;-69
2021/11/08 08:44:35;;;;;;;9.63;3.42;;;11.80;81.30;;;;;;5090369;28;20016;-72
2021/11/08 08:47:00;;;;;;;12.57;3.33;;;11.80;81.30;;;;;;5090511;28;20107;-68
2021/11/08 08:49:26;;;;;;;11.13;3.78;;;11.80;81.30;;;;;;5089119;28;20040;-73
2021/11/08 08:51:53;;;;;;;9.25;3.67;;;11.90;81.40;;;;;;5091634;28;20047;-69
2021/11/08 08:54:19;;;;;;;10.68;3.70;;;12.00;81.30;;;;;;5095313;28;20510;-70
2021/11/08 08:56:46;;;;;;;11.30;3.92;;;12.00;81.10;;;;;;5102372;28;20028;-69
2021/11/08 08:59:13;;;;;;;10.48;3.80;;;12.00;80.80;;;;;;5089094;28;20141;-69
2021/11/08 09:01:39;;;;;;;11.02;3.70;;;12.10;81.00;;;;;;5090442;28;20059;-69
2021/11/08 09:04:05;;;;;;;9.35;3.30;;;12.10;81.20;;;;;;5091148;28;20062;-69
2021/11/08 09:06:31;;;;;;;10.93;3.60;;;12.20;80.80;;;;;;5087971;28;20126;-70
2021/11/08 09:08:57;;;;;;;10.13;3.30;;;12.20;80.40;;;;;;5084662;28;20020;-69
2021/11/08 09:11:24;;;;;;;11.27;3.53;;;12.20;80.10;;;;;;5095256;28;20579;-69
2021/11/08 09:13:51;;;;;;;11.02;3.38;;;12.20;80.10;;;;;;5091151;28;20023;-69
2021/11/08 09:16:17;;;;;;;11.88;3.83;;;12.30;80.60;;;;;;5090980;28;20107;-69
2021/11/08 09:18:51;;;;;;;7.63;2.97;;;12.40;80.60;;;;;;5087492;28;20032;-69
2021/11/08 09:21:18;;;;;;;11.35;3.60;;;12.50;80.50;;;;;;5091075;28;20083;-69
2021/11/08 09:23:45;;;;;;;11.80;4.07;;;12.70;80.50;;;;;;5095128;28;20502;-69
2021/11/08 09:26:11;;;;;;;13.32;3.92;;;13.00;80.00;;;;;;5090876;28;20568;-69
2021/11/08 09:28:37;;;;;;;9.65;4.00;;;13.10;79.10;;;;;;5090638;28;20119;-69
2021/11/08 09:31:03;;;;;;;10.18;3.90;;;13.20;78.80;;;;;;5087592;28;20111;-69
2021/11/08 09:33:30;;;;;;;11.32;3.90;;;13.30;79.10;;;;;;5090829;28;20024;-69
2021/11/08 09:36:04;;;;;;;11.23;4.20;;;13.40;78.40;;;;;;5086896;28;20481;-69
2021/11/08 09:38:30;;;;;;;14.25;4.32;;;13.40;78.00;;;;;;5088132;28;20390;-69
2021/11/08 09:40:55;;;;;;;11.88;3.63;;;13.90;79.10;;;;;;5090759;28;20047;-69
2021/11/08 09:43:24;;;;;;;9.38;3.88;;;14.30;77.00;;;;;;5088498;28;20477;-69
2021/11/08 09:45:51;;;;;;;10.48;4.07;;;14.50;76.20;;;;;;5087867;28;20107;-69
2021/11/08 09:48:18;;;;;;;10.52;3.65;;;14.60;74.90;;;;;;5087583;28;20135;-69
2021/11/08 09:50:46;;;;;;;12.10;3.63;;;14.90;74.50;;;;;;5088964;28;20043;-69
2021/11/08 09:53:13;;;;;;;11.68;3.78;;;14.80;73.80;;;;;;5089262;28;20039;-69
2021/11/08 09:55:41;;;;;;;10.80;4.13;;;14.80;73.00;;;;;;5091919;28;20038;-70
2021/11/08 09:58:08;;;;;;;11.43;3.85;;;14.90;73.80;;;;;;5091012;28;20020;-69
2021/11/08 10:00:37;;;;;;;12.15;4.30;;;15.20;73.30;;;;;;5091612;28;20036;-69
2021/11/08 10:03:13;;;;;;;13.90;3.70;;;15.60;74.10;;;;;;5091313;28;20024;-69
2021/11/08 10:05:42;;;;;;;10.07;3.97;;;15.90;73.50;;;;;;5091663;28;20404;-69
2021/11/08 10:08:12;;;;;;;13.18;4.00;;;16.10;71.40;;;;;;5093259;28;20110;-69
2021/11/08 10:10:37;;;;;;;15.32;4.32;;;16.00;70.00;;;;;;5093561;28;20441;-69
2021/11/08 10:13:09;;;;;;;13.15;4.30;;;15.90;70.10;;;;;;5090932;28;20024;-69
2021/11/08 10:15:36;;;;;;;10.60;3.67;;;15.70;70.40;;;;;;5091213;28;20024;-71
2021/11/08 10:18:04;;;;;;;9.30;3.95;;;15.60;69.90;;;;;;5091295;28;20024;-69
2021/11/08 10:20:32;;;;;;;15.75;4.30;;;15.60;70.30;;;;;;5090965;28;20381;-69
2021/11/08 10:22:58;;;;;;;11.57;3.97;;;15.50;70.10;;;;;;5092401;28;20031;-69
2021/11/08 10:25:26;;;;;;;11.93;3.85;;;15.60;70.60;;;;;;5091758;28;20024;-70
2021/11/08 10:27:52;;;;;;;8.73;3.95;;;15.60;70.80;;;;;;5092265;28;20032;-69
2021/11/08 10:30:28;;;;;;;11.80;4.13;;;15.80;70.60;;;;;;5090714;28;20512;-69
2021/11/08 10:35:54;;;;;;;11.80;3.50;;;16.10;70.00;;;;;;4899064;28;20065;-70
2021/11/08 10:38:27;;;;;;;13.75;3.83;;;16.20;69.90;;;;;;4975191;28;20499;-69
2021/11/08 10:41:17;;;;;;;9.67;3.27;;;16.40;69.10;;;;;;4944842;28;20065;-69
2021/11/08 10:43:50;;;;;;;10.23;4.20;;;16.80;69.50;;;;;;4975977;28;20026;-69
2021/11/08 10:46:28;;;;;;;10.15;3.17;;;17.30;67.20;;;;;;4971532;28;20483;-69
2021/11/08 10:48:58;;;;;;;8.70;2.97;;;17.30;66.10;;;;;;4956128;28;20478;-68
2021/11/08 10:51:26;;;;;;;8.43;2.40;;;17.40;65.80;;;;;;4963732;28;20031;-68
2021/11/08 10:54:02;;;;;;;9.88;2.90;;;17.80;65.80;;;;;;4971595;28;20514;-68
2021/11/08 10:56:32;;;;;;;8.38;2.75;;;18.30;66.50;;;;;;4971118;28;20541;-68
2021/11/08 10:59:00;;;;;;;8.90;2.30;;;18.50;61.70;;;;;;4971256;28;20045;-68
2021/11/08 11:01:32;;;;;;;7.95;2.15;;;18.60;61.60;;;;;;4971012;28;20046;-68
2021/11/08 11:03:59;;;;;;;6.68;2.08;;;18.70;60.60;;;;;;4970730;28;20517;-67
2021/11/08 11:06:44;;;;;;;9.80;2.40;;;19.00;61.00;;;;;;4971682;28;20466;-68
2021/11/08 11:09:28;;;;;;;7.43;2.10;;;19.30;61.60;;;;;;4972998;28;20042;-68
2021/11/08 11:12:26;;;;;;;;;;;19.50;59.50;;;;;;4967682;28;20038;-68
2021/11/08 11:15:08;;;;;;;5.93;1.70;;;19.70;62.00;;;;;;4919619;29;19918;-68
2021/11/08 11:17:41;;;;;;;7.88;1.65;;;19.80;58.10;;;;;;4923557;28;20130;-68
2021/11/08 11:20:09;;;;;;;7.25;1.65;;;19.20;54.50;;;;;;4924083;29;20036;-68
2021/11/08 11:22:40;;;;;;;5.90;1.83;;;18.60;55.60;;;;;;4922518;29;20063;-68
2021/11/08 11:25:08;;;;;;;6.70;1.42;;;18.20;57.00;;;;;;4921092;29;20257;-68
2021/11/08 11:27:49;;;;;;;6.43;2.00;;;18.00;56.70;;;;;;4926978;29;20032;-71
2021/11/08 11:30:23;;;;;;;7.97;1.67;;;17.80;59.70;;;;;;4917347;29;20066;-74
2021/11/08 11:32:58;;;;;;;9.35;1.63;;;17.40;58.00;;;;;;4929855;29;20062;-69
2021/11/08 11:35:28;;;;;;;9.55;1.83;;;17.20;59.30;;;;;;4927094;29;20130;-69
2021/11/08 11:38:02;;;;;;;5.68;1.25;;;17.40;60.70;;;;;;4924547;29;20063;-70
2021/11/08 11:40:30;;;;;;;6.88;1.40;;;17.60;59.50;;;;;;4912963;29;20127;-70
2021/11/08 11:43:02;;;;;;;9.13;1.50;;;17.90;59.90;;;;;;4921661;29;20027;-69
2021/11/08 11:45:29;;;;;;;6.00;1.42;;;18.40;59.80;;;;;;4929435;29;20042;-68
2021/11/08 11:48:05;;;;;;;6.28;1.48;;;18.60;58.30;;;;;;4923770;29;20126;-68
2021/11/08 11:50:34;;;;;;;5.78;1.65;;;18.60;57.40;;;;;;4936790;29;20064;-71
2021/11/08 11:53:02;;;;;;;7.65;1.85;;;18.70;56.10;;;;;;4952487;28;20026;-70
2021/11/08 11:55:28;;;;;;;6.35;1.65;;;18.90;55.90;;;;;;4949538;28;20027;-69
2021/11/08 11:57:56;;;;;;;7.25;1.52;;;19.20;55.20;;;;;;4949948;29;20030;-69
2021/11/08 12:00:24;;;;;;;8.77;1.70;;;19.60;55.20;;;;;;4950296;28;20035;-70
2021/11/08 12:02:51;;;;;;;8.20;1.63;;;19.80;53.90;;;;;;4951115;28;20054;-69
2021/11/08 12:05:18;;;;;;;8.60;2.10;;;20.00;53.10;;;;;;4949251;28;20043;-69
2021/11/08 12:07:48;;;;;;;7.80;1.67;;;19.90;52.50;;;;;;4948477;28;20019;-69
2021/11/08 12:10:14;;;;;;;7.50;1.58;;;20.00;53.60;;;;;;4948062;29;20039;-69
2021/11/08 12:12:39;;;;;;;6.72;1.75;;;20.30;53.90;;;;;;4950336;28;20031;-71
2021/11/08 12:15:09;;;;;;;7.03;1.63;;;20.50;53.20;;;;;;4951476;28;20071;-68
2021/11/08 12:17:40;;;;;;;6.00;1.60;;;20.90;54.30;;;;;;4949737;28;20039;-68
2021/11/08 12:20:10;;;;;;;7.07;1.67;;;20.50;50.10;;;;;;4945693;29;20038;-68
2021/11/08 12:22:36;;;;;;;7.10;2.10;;;19.90;51.30;;;;;;4949446;28;20046;-69
2021/11/08 12:25:13;;;;;;;9.80;1.55;;;19.40;51.20;;;;;;4950908;28;20027;-68
2021/11/08 12:27:44;;;;;;;6.68;1.98;;;19.00;53.10;;;;;;4953879;28;20042;-68
2021/11/08 12:30:17;;;;;;;8.07;2.05;;;18.70;53.60;;;;;;4951761;28;20091;-69
2021/11/08 12:32:49;;;;;;;6.60;2.13;;;18.50;55.60;;;;;;4950740;29;20027;-68
2021/11/08 12:35:18;;;;;;;7.28;1.83;;;18.60;55.70;;;;;;4963991;28;20517;-68
2021/11/08 12:37:46;;;;;;;4.63;1.80;;;18.50;55.70;;;;;;4964316;28;20030;-69
2021/11/08 12:40:16;;;;;;;7.65;1.90;;;18.80;56.30;;;;;;4969805;28;20049;-68
2021/11/08 12:42:48;;;;;;;4.70;1.90;;;18.40;54.00;;;;;;4977335;28;20035;-68
2021/11/08 12:45:23;;;;;;;7.60;1.60;;;18.20;55.70;;;;;;4970323;28;20029;-68
2021/11/08 12:48:18;;;;;;;5.53;1.40;;;18.10;55.30;;;;;;4969908;28;20031;-68
2021/11/08 12:50:45;;;;;;;6.10;1.92;;;17.80;56.90;;;;;;4959946;28;20051;-68
2021/11/08 12:53:25;;;;;;;8.48;1.67;;;17.70;56.30;;;;;;4965206;28;20151;-68
2021/11/08 12:55:56;;;;;;;6.78;1.83;;;17.60;57.20;;;;;;4969946;28;20476;-68
2021/11/08 12:58:57;;;;;;;6.28;1.50;;;17.50;56.80;;;;;;4970289;28;20081;-69
2021/11/08 13:01:43;;;;;;;5.95;1.58;;;17.40;58.00;;;;;;4948685;28;20039;-68
2021/11/08 13:04:11;;;;;;;5.43;1.50;;;17.30;56.80;;;;;;4956606;28;20045;-68
2021/11/08 13:06:37;;;;;;;5.88;1.50;;;17.20;57.40;;;;;;4969678;28;20042;-68
2021/11/08 13:09:05;;;;;;;4.95;1.60;;;17.20;57.80;;;;;;4971086;28;20022;-68
2021/11/08 13:11:51;;;;;;;8.20;1.83;;;17.10;58.00;;;;;;4970036;28;20038;-68
2021/11/08 13:14:35;;;;;;;8.50;2.17;;;17.00;58.90;;;;;;4969690;28;20462;-68
2021/11/08 13:17:10;;;;;;;6.45;1.80;;;17.00;59.50;;;;;;4969682;28;20031;-70
2021/11/08 13:19:42;;;;;;;5.65;1.63;;;17.00;58.60;;;;;;4952127;28;20041;-68
2021/11/08 13:22:28;;;;;;;5.15;1.58;;;16.80;58.60;;;;;;4970053;28;20045;-68
2021/11/08 13:25:06;;;;;;;7.72;2.00;;;16.80;59.50;;;;;;4954915;28;20380;-68
2021/11/08 13:27:32;;;;;;;9.88;2.08;;;16.70;58.80;;;;;;4974663;28;20065;-68
2021/11/08 13:30:01;;;;;;;8.52;1.48;;;16.60;59.00;;;;;;4971481;28;20046;-68
2021/11/08 13:32:32;;;;;;;7.15;1.52;;;16.50;59.70;;;;;;4970648;28;20085;-68
2021/11/08 13:35:08;;;;;;;8.77;2.03;;;16.50;60.00;;;;;;4971339;28;20062;-68
2021/11/08 13:37:36;;;;;;;7.63;2.28;;;16.50;60.20;;;;;;4967637;28;20499;-68
2021/11/08 13:40:17;;;;;;;7.55;1.80;;;16.60;60.50;;;;;;4970856;28;20035;-68
2021/11/08 13:42:45;;;;;;;7.32;1.77;;;16.70;60.90;;;;;;4963172;28;20038;-72
2021/11/08 13:45:10;;;;;;;7.60;1.60;;;16.70;59.90;;;;;;4967494;28;20023;-73
2021/11/08 13:47:41;;;;;;;5.95;1.35;;;16.70;60.00;;;;;;4967225;28;20041;-73
2021/11/08 13:50:16;;;;;;;7.55;1.38;;;16.70;59.70;;;;;;4967979;28;20038;-73
2021/11/08 13:52:42;;;;;;;6.75;1.42;;;16.60;59.90;;;;;;4967700;28;20478;-70
2021/11/08 13:55:11;;;;;;;6.18;1.50;;;16.60;59.70;;;;;;4971665;28;20089;-70
2021/11/08 13:57:44;;;;;;;7.30;1.80;;;16.50;59.70;;;;;;4971039;28;20116;-69
2021/11/08 14:00:14;;;;;;;6.05;1.30;;;16.40;59.60;;;;;;4971902;28;20041;-68
2021/11/08 14:02:41;;;;;;;7.05;1.60;;;16.20;60.00;;;;;;4971685;28;20118;-69
2021/11/08 14:05:08;;;;;;;7.65;1.30;;;16.20;60.20;;;;;;4971792;28;20031;-69
2021/11/08 14:07:34;;;;;;;7.93;1.27;;;16.20;60.50;;;;;;4971755;28;20031;-68
2021/11/08 14:10:00;;;;;;;7.38;1.55;;;16.20;60.70;;;;;;4966259;28;20042;-69
2021/11/08 14:12:29;;;;;;;5.57;1.55;;;16.10;60.80;;;;;;4975159;28;20050;-69
2021/11/08 14:14:56;;;;;;;8.43;1.60;;;16.10;60.90;;;;;;4968845;28;20034;-68
2021/11/08 14:17:34;;;;;;;5.90;1.40;;;16.10;61.00;;;;;;4971782;28;20019;-69
2021/11/08 14:20:09;;;;;;;6.93;1.40;;;16.00;61.10;;;;;;4970809;28;20602;-69
2021/11/08 14:22:40;;;;;;;9.55;1.95;;;16.00;61.70;;;;;;4971428;28;20022;-71
2021/11/08 14:25:10;;;;;;;4.45;1.40;;;16.10;61.90;;;;;;4971630;28;20026;-70
2021/11/08 14:27:40;;;;;;;7.82;1.50;;;16.20;61.40;;;;;;4970943;28;20032;-70
2021/11/08 14:30:11;;;;;;;8.90;1.77;;;16.20;61.40;;;;;;4970367;28;20042;-70
2021/11/08 14:32:37;;;;;;;8.68;1.52;;;16.20;61.50;;;;;;4971491;28;20023;-70
2021/11/08 14:35:06;;;;;;;9.13;1.77;;;16.10;61.00;;;;;;4971507;28;20074;-70
2021/11/08 14:37:45;;;;;;;6.70;1.50;;;16.10;61.30;;;;;;4971173;28;20059;-69